sensor_id;sensor_type;location;lat;lon;timestamp;P1;durP1;ratioP1;P2;durP2;ratioP2
537;SDS011;254;48.524;8.926;2022-11-09T00:00:04;6.8;;;5.7;;
537;SDS011;254;48.524;8.926;2022-11-09T00:01:03;9.9;;;5.5;;
537;SDS011;254;48.524;8.926;2022-11-09T00:02:02;6.8;;;5.2;;
537;SDS011;254;48.524;8.926;2022-11-09T00:03:03;7.6;;;5.3;;
537;SDS011;254;48.524;8.926;2022-11-09T00:04:02;5.4;;;4.8;;
537;SDS011;254;48.524;8.926;2022-11-09T00:05:02;6.3;;;4.9;;
537;SDS011;254;48.524;8.926;2022-11-09T00:06:03;5.8;;;4.4;;
537;SDS011;254;48.524;8.926;2022-11-09T00:07:01;5.0;;;4.1;;
537;SDS011;254;48.524;8.926;2022-11-09T00:08:03;6.8;;;4.9;;
537;SDS011;254;48.524;8.926;2022-11-09T00:09:02;6.7;;;5.2;;
537;SDS011;254;48.524;8.926;2022-11-09T00:10:03;7.3;;;5.2;;
537;SDS011;254;48.524;8.926;2022-11-09T00:11:02;7.1;;;5.1;;
537;SDS011;254;48.524;8.926;2022-11-09T00:12:02;5.7;;;4.2;;
537;SDS011;254;48.524;8.926;2022-11-09T00:13:03;4.7;;;3.9;;
537;SDS011;254;48.524;8.926;2022-11-09T00:14:02;6.0;;;4.6;;
537;SDS011;254;48.524;8.926;2022-11-09T00:15:02;5.4;;;4.7;;
537;SDS011;254;48.524;8.926;2022-11-09T00:16:02;6.3;;;4.8;;
537;SDS011;254;48.524;8.926;2022-11-09T00:17:02;6.3;;;5.3;;
537;SDS011;254;48.524;8.926;2022-11-09T00:18:02;7.1;;;4.9;;
537;SDS011;254;48.524;8.926;2022-11-09T00:19:02;6.9;;;5.0;;
537;SDS011;254;48.524;8.926;2022-11-09T00:20:02;7.6;;;5.4;;
537;SDS011;254;48.524;8.926;2022-11-09T00:21:04;7.7;;;5.2;;
537;SDS011;254;48.524;8.926;2022-11-09T00:22:01;8.0;;;5.4;;
537;SDS011;254;48.524;8.926;2022-11-09T00:23:02;6.0;;;4.3;;
537;SDS011;254;48.524;8.926;2022-11-09T00:24:03;6.5;;;4.7;;
537;SDS011;254;48.524;8.926;2022-11-09T00:25:02;6.5;;;4.9;;
537;SDS011;254;48.524;8.926;2022-11-09T00:26:04;7.9;;;4.8;;
537;SDS011;254;48.524;8.926;2022-11-09T00:27:02;6.8;;;4.9;;
537;SDS011;254;48.524;8.926;2022-11-09T00:28:02;6.3;;;4.7;;
537;SDS011;254;48.524;8.926;2022-11-09T00:29:02;6.3;;;4.6;;
537;SDS011;254;48.524;8.926;2022-11-09T00:30:03;7.1;;;4.8;;
537;SDS011;254;48.524;8.926;2022-11-09T00:31:03;6.3;;;5.2;;
537;SDS011;254;48.524;8.926;2022-11-09T00:32:02;7.9;;;5.2;;
537;SDS011;254;48.524;8.926;2022-11-09T00:33:02;5.8;;;5.1;;
537;SDS011;254;48.524;8.926;2022-11-09T00:34:02;6.1;;;5.0;;
537;SDS011;254;48.524;8.926;2022-11-09T00:35:02;6.6;;;5.3;;
537;SDS011;254;48.524;8.926;2022-11-09T00:36:03;6.1;;;5.1;;
537;SDS011;254;48.524;8.926;2022-11-09T00:37:03;5.4;;;4.7;;
537;SDS011;254;48.524;8.926;2022-11-09T00:38:02;10.0;;;5.5;;
537;SDS011;254;48.524;8.926;2022-11-09T00:39:02;7.3;;;5.1;;
537;SDS011;254;48.524;8.926;2022-11-09T00:40:03;6.3;;;4.7;;
537;SDS011;254;48.524;8.926;2022-11-09T00:41:02;6.5;;;5.1;;
537;SDS011;254;48.524;8.926;2022-11-09T00:42:02;6.8;;;4.9;;
537;SDS011;254;48.524;8.926;2022-11-09T00:43:02;8.3;;;5.7;;
537;SDS011;254;48.524;8.926;2022-11-09T00:44:03;6.7;;;4.5;;
537;SDS011;254;48.524;8.926;2022-11-09T00:45:02;10.4;;;5.1;;
537;SDS011;254;48.524;8.926;2022-11-09T00:46:02;7.4;;;5.3;;
537;SDS011;254;48.524;8.926;2022-11-09T00:47:02;6.2;;;5.1;;
537;SDS011;254;48.524;8.926;2022-11-09T00:48:02;6.6;;;5.1;;
537;SDS011;254;48.524;8.926;2022-11-09T00:49:02;7.2;;;4.8;;
537;SDS011;254;48.524;8.926;2022-11-09T00:50:03;6.4;;;5.1;;
537;SDS011;254;48.524;8.926;2022-11-09T00:51:02;6.0;;;4.7;;
537;SDS011;254;48.524;8.926;2022-11-09T00:52:03;5.5;;;4.9;;
537;SDS011;254;48.524;8.926;2022-11-09T00:53:01;7.3;;;5.2;;
537;SDS011;254;48.524;8.926;2022-11-09T00:54:02;6.6;;;5.1;;
537;SDS011;254;48.524;8.926;2022-11-09T00:55:03;6.2;;;4.7;;
537;SDS011;254;48.524;8.926;2022-11-09T00:56:04;5.3;;;4.7;;
537;SDS011;254;48.524;8.926;2022-11-09T00:57:03;6.9;;;5.1;;
537;SDS011;254;48.524;8.926;2022-11-09T00:58:02;6.8;;;4.7;;
537;SDS011;254;48.524;8.926;2022-11-09T00:59:02;6.3;;;4.7;;
537;SDS011;254;48.524;8.926;2022-11-09T01:00:03;5.9;;;5.0;;
537;SDS011;254;48.524;8.926;2022-11-09T01:01:04;5.4;;;4.6;;
537;SDS011;254;48.524;8.926;2022-11-09T01:02:02;6.9;;;4.8;;
537;SDS011;254;48.524;8.926;2022-11-09T01:03:03;7.5;;;5.1;;
537;SDS011;254;48.524;8.926;2022-11-09T01:04:01;5.9;;;4.8;;
537;SDS011;254;48.524;8.926;2022-11-09T01:05:02;7.0;;;4.8;;
537;SDS011;254;48.524;8.926;2022-11-09T01:06:02;6.0;;;5.0;;
537;SDS011;254;48.524;8.926;2022-11-09T01:07:02;9.7;;;4.8;;
537;SDS011;254;48.524;8.926;2022-11-09T01:08:02;7.9;;;4.6;;
537;SDS011;254;48.524;8.926;2022-11-09T01:09:02;6.9;;;4.9;;
537;SDS011;254;48.524;8.926;2022-11-09T01:10:03;6.1;;;4.7;;
537;SDS011;254;48.524;8.926;2022-11-09T01:11:03;5.6;;;4.6;;
537;SDS011;254;48.524;8.926;2022-11-09T01:12:04;7.2;;;4.8;;
537;SDS011;254;48.524;8.926;2022-11-09T01:13:02;6.0;;;4.4;;
537;SDS011;254;48.524;8.926;2022-11-09T01:14:03;5.8;;;4.8;;
537;SDS011;254;48.524;8.926;2022-11-09T01:15:02;6.7;;;4.7;;
537;SDS011;254;48.524;8.926;2022-11-09T01:16:04;5.8;;;4.4;;
537;SDS011;254;48.524;8.926;2022-11-09T01:17:02;5.1;;;4.4;;
537;SDS011;254;48.524;8.926;2022-11-09T01:18:03;4.2;;;3.8;;
537;SDS011;254;48.524;8.926;2022-11-09T01:19:02;5.9;;;4.7;;
537;SDS011;254;48.524;8.926;2022-11-09T01:20:02;5.1;;;4.6;;
537;SDS011;254;48.524;8.926;2022-11-09T01:21:03;5.1;;;4.6;;
537;SDS011;254;48.524;8.926;2022-11-09T01:22:02;5.5;;;4.4;;
537;SDS011;254;48.524;8.926;2022-11-09T01:23:02;6.0;;;4.4;;
537;SDS011;254;48.524;8.926;2022-11-09T01:24:03;6.1;;;4.6;;
537;SDS011;254;48.524;8.926;2022-11-09T01:25:02;6.1;;;4.6;;
537;SDS011;254;48.524;8.926;2022-11-09T01:26:03;5.2;;;4.6;;
537;SDS011;254;48.524;8.926;2022-11-09T01:27:02;5.7;;;4.6;;
537;SDS011;254;48.524;8.926;2022-11-09T01:28:02;6.2;;;4.0;;
537;SDS011;254;48.524;8.926;2022-11-09T01:29:02;5.7;;;4.2;;
537;SDS011;254;48.524;8.926;2022-11-09T01:30:02;6.1;;;4.7;;
537;SDS011;254;48.524;8.926;2022-11-09T01:31:02;6.0;;;4.5;;
537;SDS011;254;48.524;8.926;2022-11-09T01:32:03;5.6;;;4.7;;
537;SDS011;254;48.524;8.926;2022-11-09T01:33:02;5.4;;;4.5;;
537;SDS011;254;48.524;8.926;2022-11-09T01:34:02;5.8;;;4.3;;
537;SDS011;254;48.524;8.926;2022-11-09T01:35:03;5.2;;;3.8;;
537;SDS011;254;48.524;8.926;2022-11-09T01:36:03;5.0;;;4.3;;
537;SDS011;254;48.524;8.926;2022-11-09T01:37:03;4.8;;;4.3;;
537;SDS011;254;48.524;8.926;2022-11-09T01:38:02;7.6;;;5.2;;
537;SDS011;254;48.524;8.926;2022-11-09T01:39:02;6.8;;;5.3;;
537;SDS011;254;48.524;8.926;2022-11-09T01:40:03;6.2;;;5.3;;
537;SDS011;254;48.524;8.926;2022-11-09T01:41:03;8.6;;;5.2;;
537;SDS011;254;48.524;8.926;2022-11-09T01:42:02;8.6;;;5.5;;
537;SDS011;254;48.524;8.926;2022-11-09T01:43:04;5.8;;;5.2;;
537;SDS011;254;48.524;8.926;2022-11-09T01:44:05;5.9;;;4.3;;
537;SDS011;254;48.524;8.926;2022-11-09T01:45:15;5.5;;;4.3;;
537;SDS011;254;48.524;8.926;2022-11-09T01:46:04;7.3;;;4.5;;
537;SDS011;254;48.524;8.926;2022-11-09T01:47:03;5.9;;;5.1;;
537;SDS011;254;48.524;8.926;2022-11-09T01:48:03;6.4;;;5.3;;
537;SDS011;254;48.524;8.926;2022-11-09T01:49:02;7.8;;;5.3;;
537;SDS011;254;48.524;8.926;2022-11-09T01:50:02;5.1;;;4.6;;
537;SDS011;254;48.524;8.926;2022-11-09T01:51:04;6.7;;;5.1;;
537;SDS011;254;48.524;8.926;2022-11-09T01:52:06;6.5;;;5.1;;
537;SDS011;254;48.524;8.926;2022-11-09T01:53:03;6.5;;;4.9;;
537;SDS011;254;48.524;8.926;2022-11-09T01:54:03;6.4;;;5.2;;
537;SDS011;254;48.524;8.926;2022-11-09T01:55:03;7.9;;;5.3;;
537;SDS011;254;48.524;8.926;2022-11-09T01:56:03;5.2;;;4.7;;
537;SDS011;254;48.524;8.926;2022-11-09T01:57:04;5.6;;;4.9;;
537;SDS011;254;48.524;8.926;2022-11-09T01:58:03;7.2;;;5.2;;
537;SDS011;254;48.524;8.926;2022-11-09T01:59:03;6.0;;;5.0;;
537;SDS011;254;48.524;8.926;2022-11-09T02:00:03;7.1;;;4.8;;
537;SDS011;254;48.524;8.926;2022-11-09T02:01:02;5.6;;;4.6;;
537;SDS011;254;48.524;8.926;2022-11-09T02:02:02;7.1;;;4.8;;
537;SDS011;254;48.524;8.926;2022-11-09T02:03:04;7.2;;;4.6;;
537;SDS011;254;48.524;8.926;2022-11-09T02:04:04;5.0;;;4.3;;
537;SDS011;254;48.524;8.926;2022-11-09T02:05:06;5.7;;;4.5;;
537;SDS011;254;48.524;8.926;2022-11-09T02:06:03;6.2;;;5.0;;
537;SDS011;254;48.524;8.926;2022-11-09T02:07:02;8.0;;;4.5;;
537;SDS011;254;48.524;8.926;2022-11-09T02:08:03;7.2;;;4.6;;
537;SDS011;254;48.524;8.926;2022-11-09T02:09:03;5.7;;;4.8;;
537;SDS011;254;48.524;8.926;2022-11-09T02:10:03;5.5;;;4.6;;
537;SDS011;254;48.524;8.926;2022-11-09T02:11:03;5.9;;;4.8;;
537;SDS011;254;48.524;8.926;2022-11-09T02:12:03;5.8;;;4.6;;
537;SDS011;254;48.524;8.926;2022-11-09T02:13:02;6.2;;;4.2;;
537;SDS011;254;48.524;8.926;2022-11-09T02:14:02;5.8;;;4.1;;
537;SDS011;254;48.524;8.926;2022-11-09T02:15:03;6.3;;;4.1;;
537;SDS011;254;48.524;8.926;2022-11-09T02:16:02;6.3;;;4.1;;
537;SDS011;254;48.524;8.926;2022-11-09T02:17:02;5.9;;;4.4;;
537;SDS011;254;48.524;8.926;2022-11-09T02:18:03;5.8;;;4.3;;
537;SDS011;254;48.524;8.926;2022-11-09T02:19:02;5.3;;;3.9;;
537;SDS011;254;48.524;8.926;2022-11-09T02:20:05;5.5;;;4.3;;
537;SDS011;254;48.524;8.926;2022-11-09T02:21:02;5.1;;;4.3;;
537;SDS011;254;48.524;8.926;2022-11-09T02:22:02;5.8;;;3.9;;
537;SDS011;254;48.524;8.926;2022-11-09T02:23:02;5.4;;;4.5;;
537;SDS011;254;48.524;8.926;2022-11-09T02:24:02;6.2;;;4.4;;
537;SDS011;254;48.524;8.926;2022-11-09T02:25:02;4.4;;;3.9;;
537;SDS011;254;48.524;8.926;2022-11-09T02:26:04;5.2;;;4.5;;
537;SDS011;254;48.524;8.926;2022-11-09T02:27:03;5.4;;;4.4;;
537;SDS011;254;48.524;8.926;2022-11-09T02:28:02;6.1;;;4.8;;
537;SDS011;254;48.524;8.926;2022-11-09T02:29:03;9.4;;;5.3;;
537;SDS011;254;48.524;8.926;2022-11-09T02:30:03;5.7;;;4.4;;
537;SDS011;254;48.524;8.926;2022-11-09T02:31:02;5.9;;;5.0;;
537;SDS011;254;48.524;8.926;2022-11-09T02:32:03;6.6;;;4.9;;
537;SDS011;254;48.524;8.926;2022-11-09T02:33:02;7.1;;;4.8;;
537;SDS011;254;48.524;8.926;2022-11-09T02:34:02;5.9;;;4.1;;
537;SDS011;254;48.524;8.926;2022-11-09T02:35:02;5.2;;;4.6;;
537;SDS011;254;48.524;8.926;2022-11-09T02:36:02;5.0;;;4.2;;
537;SDS011;254;48.524;8.926;2022-11-09T02:37:02;5.1;;;4.1;;
537;SDS011;254;48.524;8.926;2022-11-09T02:38:04;6.3;;;4.1;;
537;SDS011;254;48.524;8.926;2022-11-09T02:39:02;4.2;;;3.8;;
537;SDS011;254;48.524;8.926;2022-11-09T02:40:05;5.9;;;4.4;;
537;SDS011;254;48.524;8.926;2022-11-09T02:41:02;4.7;;;3.9;;
537;SDS011;254;48.524;8.926;2022-11-09T02:42:03;4.4;;;3.8;;
537;SDS011;254;48.524;8.926;2022-11-09T02:43:02;5.0;;;3.6;;
537;SDS011;254;48.524;8.926;2022-11-09T02:44:02;5.8;;;3.5;;
537;SDS011;254;48.524;8.926;2022-11-09T02:45:02;4.7;;;3.1;;
537;SDS011;254;48.524;8.926;2022-11-09T02:46:03;3.6;;;3.1;;
537;SDS011;254;48.524;8.926;2022-11-09T02:47:02;4.4;;;2.9;;
537;SDS011;254;48.524;8.926;2022-11-09T02:48:02;4.0;;;2.7;;
537;SDS011;254;48.524;8.926;2022-11-09T02:49:04;4.3;;;3.1;;
537;SDS011;254;48.524;8.926;2022-11-09T02:50:03;3.6;;;3.0;;
537;SDS011;254;48.524;8.926;2022-11-09T02:51:02;5.5;;;3.2;;
537;SDS011;254;48.524;8.926;2022-11-09T02:52:03;3.5;;;2.9;;
537;SDS011;254;48.524;8.926;2022-11-09T02:53:01;3.7;;;3.1;;
537;SDS011;254;48.524;8.926;2022-11-09T02:54:02;4.4;;;3.3;;
537;SDS011;254;48.524;8.926;2022-11-09T02:55:03;6.2;;;3.6;;
537;SDS011;254;48.524;8.926;2022-11-09T02:56:02;4.9;;;3.7;;
537;SDS011;254;48.524;8.926;2022-11-09T02:57:02;5.5;;;4.3;;
537;SDS011;254;48.524;8.926;2022-11-09T02:58:02;7.1;;;5.1;;
537;SDS011;254;48.524;8.926;2022-11-09T02:59:02;8.2;;;5.5;;
537;SDS011;254;48.524;8.926;2022-11-09T03:00:02;5.8;;;5.2;;
537;SDS011;254;48.524;8.926;2022-11-09T03:01:02;6.5;;;5.0;;
537;SDS011;254;48.524;8.926;2022-11-09T03:02:02;7.3;;;5.6;;
537;SDS011;254;48.524;8.926;2022-11-09T03:03:03;8.0;;;5.1;;
537;SDS011;254;48.524;8.926;2022-11-09T03:04:01;5.9;;;5.1;;
537;SDS011;254;48.524;8.926;2022-11-09T03:05:02;6.7;;;4.9;;
537;SDS011;254;48.524;8.926;2022-11-09T03:06:02;8.6;;;5.0;;
537;SDS011;254;48.524;8.926;2022-11-09T03:07:02;6.0;;;5.0;;
537;SDS011;254;48.524;8.926;2022-11-09T03:08:02;7.4;;;4.9;;
537;SDS011;254;48.524;8.926;2022-11-09T03:09:03;6.0;;;4.9;;
537;SDS011;254;48.524;8.926;2022-11-09T03:10:03;6.9;;;4.7;;
537;SDS011;254;48.524;8.926;2022-11-09T03:11:02;6.8;;;4.5;;
537;SDS011;254;48.524;8.926;2022-11-09T03:12:03;5.8;;;4.9;;
537;SDS011;254;48.524;8.926;2022-11-09T03:13:01;5.9;;;4.5;;
537;SDS011;254;48.524;8.926;2022-11-09T03:14:02;5.7;;;4.5;;
537;SDS011;254;48.524;8.926;2022-11-09T03:15:04;6.2;;;4.5;;
537;SDS011;254;48.524;8.926;2022-11-09T03:16:03;6.9;;;4.9;;
537;SDS011;254;48.524;8.926;2022-11-09T03:17:02;6.7;;;4.4;;
537;SDS011;254;48.524;8.926;2022-11-09T03:18:02;5.0;;;4.5;;
537;SDS011;254;48.524;8.926;2022-11-09T03:19:02;5.3;;;4.6;;
537;SDS011;254;48.524;8.926;2022-11-09T03:20:02;5.5;;;4.4;;
537;SDS011;254;48.524;8.926;2022-11-09T03:21:03;4.7;;;3.7;;
537;SDS011;254;48.524;8.926;2022-11-09T03:22:02;7.5;;;4.4;;
537;SDS011;254;48.524;8.926;2022-11-09T03:23:02;4.1;;;3.6;;
537;SDS011;254;48.524;8.926;2022-11-09T03:24:02;5.6;;;3.5;;
537;SDS011;254;48.524;8.926;2022-11-09T03:25:03;5.8;;;3.9;;
537;SDS011;254;48.524;8.926;2022-11-09T03:26:02;5.7;;;3.3;;
537;SDS011;254;48.524;8.926;2022-11-09T03:27:03;4.3;;;3.2;;
537;SDS011;254;48.524;8.926;2022-11-09T03:28:02;3.9;;;3.3;;
537;SDS011;254;48.524;8.926;2022-11-09T03:29:02;5.1;;;3.4;;
537;SDS011;254;48.524;8.926;2022-11-09T03:30:03;4.6;;;3.5;;
537;SDS011;254;48.524;8.926;2022-11-09T03:31:02;5.5;;;3.9;;
537;SDS011;254;48.524;8.926;2022-11-09T03:32:03;5.7;;;4.5;;
537;SDS011;254;48.524;8.926;2022-11-09T03:33:03;6.2;;;4.3;;
537;SDS011;254;48.524;8.926;2022-11-09T03:34:02;5.2;;;4.5;;
537;SDS011;254;48.524;8.926;2022-11-09T03:35:03;6.1;;;4.3;;
537;SDS011;254;48.524;8.926;2022-11-09T03:36:02;5.5;;;4.2;;
537;SDS011;254;48.524;8.926;2022-11-09T03:37:02;4.9;;;4.4;;
537;SDS011;254;48.524;8.926;2022-11-09T03:38:03;6.3;;;3.9;;
537;SDS011;254;48.524;8.926;2022-11-09T03:39:02;5.9;;;4.5;;
537;SDS011;254;48.524;8.926;2022-11-09T03:40:02;4.8;;;4.0;;
537;SDS011;254;48.524;8.926;2022-11-09T03:41:03;4.1;;;3.6;;
537;SDS011;254;48.524;8.926;2022-11-09T03:42:01;5.2;;;3.9;;
537;SDS011;254;48.524;8.926;2022-11-09T03:43:02;5.3;;;4.2;;
537;SDS011;254;48.524;8.926;2022-11-09T03:44:03;6.4;;;3.9;;
537;SDS011;254;48.524;8.926;2022-11-09T03:45:02;4.4;;;3.5;;
537;SDS011;254;48.524;8.926;2022-11-09T03:46:02;7.3;;;4.2;;
537;SDS011;254;48.524;8.926;2022-11-09T03:47:03;5.4;;;3.8;;
537;SDS011;254;48.524;8.926;2022-11-09T03:48:04;5.2;;;3.7;;
537;SDS011;254;48.524;8.926;2022-11-09T03:49:03;4.8;;;3.6;;
537;SDS011;254;48.524;8.926;2022-11-09T03:50:02;6.6;;;4.2;;
537;SDS011;254;48.524;8.926;2022-11-09T03:51:02;4.9;;;3.6;;
537;SDS011;254;48.524;8.926;2022-11-09T03:52:03;5.2;;;3.6;;
537;SDS011;254;48.524;8.926;2022-11-09T03:53:03;4.7;;;3.5;;
537;SDS011;254;48.524;8.926;2022-11-09T03:54:02;6.1;;;3.8;;
537;SDS011;254;48.524;8.926;2022-11-09T03:55:02;3.7;;;3.1;;
537;SDS011;254;48.524;8.926;2022-11-09T03:56:03;4.0;;;3.6;;
537;SDS011;254;48.524;8.926;2022-11-09T03:57:02;4.0;;;3.2;;
537;SDS011;254;48.524;8.926;2022-11-09T03:58:02;5.0;;;3.7;;
537;SDS011;254;48.524;8.926;2022-11-09T03:59:03;4.2;;;3.3;;
537;SDS011;254;48.524;8.926;2022-11-09T04:00:03;4.9;;;3.8;;
537;SDS011;254;48.524;8.926;2022-11-09T04:01:03;6.2;;;3.9;;
537;SDS011;254;48.524;8.926;2022-11-09T04:02:02;3.9;;;3.6;;
537;SDS011;254;48.524;8.926;2022-11-09T04:03:02;5.3;;;3.7;;
537;SDS011;254;48.524;8.926;2022-11-09T04:04:03;6.1;;;3.4;;
537;SDS011;254;48.524;8.926;2022-11-09T04:05:01;5.2;;;3.8;;
537;SDS011;254;48.524;8.926;2022-11-09T04:06:02;4.0;;;3.4;;
537;SDS011;254;48.524;8.926;2022-11-09T04:07:03;5.5;;;3.5;;
537;SDS011;254;48.524;8.926;2022-11-09T04:08:01;3.9;;;3.3;;
537;SDS011;254;48.524;8.926;2022-11-09T04:09:02;6.3;;;3.7;;
537;SDS011;254;48.524;8.926;2022-11-09T04:10:03;6.7;;;3.7;;
537;SDS011;254;48.524;8.926;2022-11-09T04:11:02;4.1;;;3.7;;
537;SDS011;254;48.524;8.926;2022-11-09T04:12:04;5.3;;;3.4;;
537;SDS011;254;48.524;8.926;2022-11-09T04:13:03;5.6;;;4.1;;
537;SDS011;254;48.524;8.926;2022-11-09T04:14:02;4.2;;;3.8;;
537;SDS011;254;48.524;8.926;2022-11-09T04:15:02;5.0;;;4.2;;
537;SDS011;254;48.524;8.926;2022-11-09T04:16:03;5.5;;;4.3;;
537;SDS011;254;48.524;8.926;2022-11-09T04:17:02;5.5;;;4.0;;
537;SDS011;254;48.524;8.926;2022-11-09T04:18:02;6.0;;;4.1;;
537;SDS011;254;48.524;8.926;2022-11-09T04:19:02;4.2;;;3.8;;
537;SDS011;254;48.524;8.926;2022-11-09T04:20:02;7.2;;;3.8;;
537;SDS011;254;48.524;8.926;2022-11-09T04:21:02;6.2;;;4.1;;
537;SDS011;254;48.524;8.926;2022-11-09T04:22:02;5.9;;;3.9;;
537;SDS011;254;48.524;8.926;2022-11-09T04:23:03;5.5;;;4.1;;
537;SDS011;254;48.524;8.926;2022-11-09T04:24:02;4.4;;;3.7;;
537;SDS011;254;48.524;8.926;2022-11-09T04:25:03;6.6;;;4.1;;
537;SDS011;254;48.524;8.926;2022-11-09T04:26:02;4.8;;;3.8;;
537;SDS011;254;48.524;8.926;2022-11-09T04:27:03;4.5;;;3.8;;
537;SDS011;254;48.524;8.926;2022-11-09T04:28:03;4.6;;;3.9;;
537;SDS011;254;48.524;8.926;2022-11-09T04:29:02;4.8;;;3.9;;
537;SDS011;254;48.524;8.926;2022-11-09T04:30:03;5.1;;;3.9;;
537;SDS011;254;48.524;8.926;2022-11-09T04:31:02;4.2;;;3.8;;
537;SDS011;254;48.524;8.926;2022-11-09T04:32:02;6.0;;;4.0;;
537;SDS011;254;48.524;8.926;2022-11-09T04:33:03;5.5;;;3.6;;
537;SDS011;254;48.524;8.926;2022-11-09T04:34:02;7.4;;;3.6;;
537;SDS011;254;48.524;8.926;2022-11-09T04:35:02;5.0;;;3.5;;
537;SDS011;254;48.524;8.926;2022-11-09T04:36:03;4.4;;;3.9;;
537;SDS011;254;48.524;8.926;2022-11-09T04:37:02;4.0;;;3.5;;
537;SDS011;254;48.524;8.926;2022-11-09T04:38:04;5.7;;;3.4;;
537;SDS011;254;48.524;8.926;2022-11-09T04:39:02;5.0;;;3.6;;
537;SDS011;254;48.524;8.926;2022-11-09T04:40:02;4.8;;;3.5;;
537;SDS011;254;48.524;8.926;2022-11-09T04:41:03;4.2;;;3.7;;
537;SDS011;254;48.524;8.926;2022-11-09T04:42:02;12.4;;;3.7;;
537;SDS011;254;48.524;8.926;2022-11-09T04:43:03;5.0;;;3.8;;
537;SDS011;254;48.524;8.926;2022-11-09T04:44:03;6.2;;;4.0;;
537;SDS011;254;48.524;8.926;2022-11-09T04:45:02;4.4;;;4.0;;
537;SDS011;254;48.524;8.926;2022-11-09T04:46:02;7.9;;;3.9;;
537;SDS011;254;48.524;8.926;2022-11-09T04:47:03;4.4;;;4.0;;
537;SDS011;254;48.524;8.926;2022-11-09T04:48:03;6.7;;;4.2;;
537;SDS011;254;48.524;8.926;2022-11-09T04:49:02;5.9;;;4.4;;
537;SDS011;254;48.524;8.926;2022-11-09T04:50:03;5.5;;;3.8;;
537;SDS011;254;48.524;8.926;2022-11-09T04:51:03;5.5;;;4.0;;
537;SDS011;254;48.524;8.926;2022-11-09T04:52:02;5.4;;;3.7;;
537;SDS011;254;48.524;8.926;2022-11-09T04:53:04;4.6;;;4.0;;
537;SDS011;254;48.524;8.926;2022-11-09T04:54:02;5.3;;;3.8;;
537;SDS011;254;48.524;8.926;2022-11-09T04:55:03;4.4;;;3.6;;
537;SDS011;254;48.524;8.926;2022-11-09T04:56:02;6.0;;;3.8;;
537;SDS011;254;48.524;8.926;2022-11-09T04:57:02;6.5;;;4.2;;
537;SDS011;254;48.524;8.926;2022-11-09T04:58:03;6.0;;;4.1;;
537;SDS011;254;48.524;8.926;2022-11-09T04:59:02;5.1;;;3.8;;
537;SDS011;254;48.524;8.926;2022-11-09T05:00:03;5.5;;;3.9;;
537;SDS011;254;48.524;8.926;2022-11-09T05:01:02;5.3;;;3.5;;
537;SDS011;254;48.524;8.926;2022-11-09T05:02:03;4.1;;;3.7;;
537;SDS011;254;48.524;8.926;2022-11-09T05:03:03;5.2;;;3.9;;
537;SDS011;254;48.524;8.926;2022-11-09T05:04:02;3.7;;;3.2;;
537;SDS011;254;48.524;8.926;2022-11-09T05:05:03;5.5;;;4.1;;
537;SDS011;254;48.524;8.926;2022-11-09T05:06:02;4.1;;;3.5;;
537;SDS011;254;48.524;8.926;2022-11-09T05:07:02;5.2;;;3.8;;
537;SDS011;254;48.524;8.926;2022-11-09T05:08:03;5.0;;;4.0;;
537;SDS011;254;48.524;8.926;2022-11-09T05:09:02;5.4;;;3.8;;
537;SDS011;254;48.524;8.926;2022-11-09T05:10:02;5.4;;;3.6;;
537;SDS011;254;48.524;8.926;2022-11-09T05:11:02;4.9;;;3.7;;
537;SDS011;254;48.524;8.926;2022-11-09T05:12:02;4.4;;;3.9;;
537;SDS011;254;48.524;8.926;2022-11-09T05:13:03;4.9;;;3.6;;
537;SDS011;254;48.524;8.926;2022-11-09T05:14:03;5.6;;;3.7;;
537;SDS011;254;48.524;8.926;2022-11-09T05:15:02;4.6;;;3.8;;
537;SDS011;254;48.524;8.926;2022-11-09T05:16:02;5.7;;;3.9;;
537;SDS011;254;48.524;8.926;2022-11-09T05:17:03;4.1;;;3.6;;
537;SDS011;254;48.524;8.926;2022-11-09T05:18:03;4.8;;;3.8;;
537;SDS011;254;48.524;8.926;2022-11-09T05:19:02;4.3;;;3.9;;
537;SDS011;254;48.524;8.926;2022-11-09T05:20:03;5.2;;;3.8;;
537;SDS011;254;48.524;8.926;2022-11-09T05:21:01;6.5;;;3.5;;
537;SDS011;254;48.524;8.926;2022-11-09T05:22:02;6.5;;;3.7;;
537;SDS011;254;48.524;8.926;2022-11-09T05:23:03;4.3;;;3.4;;
537;SDS011;254;48.524;8.926;2022-11-09T05:24:02;4.0;;;3.4;;
537;SDS011;254;48.524;8.926;2022-11-09T05:25:02;4.0;;;3.5;;
537;SDS011;254;48.524;8.926;2022-11-09T05:26:02;4.7;;;3.8;;
537;SDS011;254;48.524;8.926;2022-11-09T05:27:02;5.0;;;4.0;;
537;SDS011;254;48.524;8.926;2022-11-09T05:28:02;5.4;;;3.5;;
537;SDS011;254;48.524;8.926;2022-11-09T05:29:04;4.5;;;3.6;;
537;SDS011;254;48.524;8.926;2022-11-09T05:30:04;4.5;;;3.5;;
537;SDS011;254;48.524;8.926;2022-11-09T05:31:02;4.6;;;3.6;;
537;SDS011;254;48.524;8.926;2022-11-09T05:32:02;4.3;;;3.6;;
537;SDS011;254;48.524;8.926;2022-11-09T05:33:02;6.0;;;3.7;;
537;SDS011;254;48.524;8.926;2022-11-09T05:34:02;4.6;;;3.5;;
537;SDS011;254;48.524;8.926;2022-11-09T05:35:03;5.0;;;3.4;;
537;SDS011;254;48.524;8.926;2022-11-09T05:36:02;4.3;;;3.2;;
537;SDS011;254;48.524;8.926;2022-11-09T05:37:03;5.2;;;4.1;;
537;SDS011;254;48.524;8.926;2022-11-09T05:38:01;6.9;;;4.9;;
537;SDS011;254;48.524;8.926;2022-11-09T05:39:02;9.7;;;5.1;;
537;SDS011;254;48.524;8.926;2022-11-09T05:40:03;7.0;;;5.6;;
537;SDS011;254;48.524;8.926;2022-11-09T05:41:02;7.1;;;6.0;;
537;SDS011;254;48.524;8.926;2022-11-09T05:42:04;7.8;;;6.0;;
537;SDS011;254;48.524;8.926;2022-11-09T05:43:03;8.6;;;6.2;;
537;SDS011;254;48.524;8.926;2022-11-09T05:44:01;6.8;;;6.1;;
537;SDS011;254;48.524;8.926;2022-11-09T05:45:02;6.9;;;5.7;;
537;SDS011;254;48.524;8.926;2022-11-09T05:46:02;6.9;;;5.8;;
537;SDS011;254;48.524;8.926;2022-11-09T05:47:02;8.4;;;6.1;;
537;SDS011;254;48.524;8.926;2022-11-09T05:48:02;9.2;;;6.3;;
537;SDS011;254;48.524;8.926;2022-11-09T05:49:02;8.1;;;6.3;;
537;SDS011;254;48.524;8.926;2022-11-09T05:50:03;6.3;;;5.6;;
537;SDS011;254;48.524;8.926;2022-11-09T05:51:02;8.3;;;6.0;;
537;SDS011;254;48.524;8.926;2022-11-09T05:52:03;6.7;;;5.9;;
537;SDS011;254;48.524;8.926;2022-11-09T05:53:01;6.8;;;6.1;;
537;SDS011;254;48.524;8.926;2022-11-09T05:54:02;6.4;;;5.6;;
537;SDS011;254;48.524;8.926;2022-11-09T05:55:03;7.3;;;5.8;;
537;SDS011;254;48.524;8.926;2022-11-09T05:56:03;7.9;;;6.0;;
537;SDS011;254;48.524;8.926;2022-11-09T05:57:02;6.9;;;5.9;;
537;SDS011;254;48.524;8.926;2022-11-09T05:58:03;7.6;;;6.2;;
537;SDS011;254;48.524;8.926;2022-11-09T05:59:01;7.6;;;6.2;;
537;SDS011;254;48.524;8.926;2022-11-09T06:00:03;7.1;;;6.1;;
537;SDS011;254;48.524;8.926;2022-11-09T06:01:03;8.7;;;5.8;;
537;SDS011;254;48.524;8.926;2022-11-09T06:02:01;7.0;;;6.1;;
537;SDS011;254;48.524;8.926;2022-11-09T06:03:02;7.8;;;5.8;;
537;SDS011;254;48.524;8.926;2022-11-09T06:04:03;10.1;;;6.5;;
537;SDS011;254;48.524;8.926;2022-11-09T06:05:02;7.1;;;5.6;;
537;SDS011;254;48.524;8.926;2022-11-09T06:06:03;6.3;;;5.2;;
537;SDS011;254;48.524;8.926;2022-11-09T06:07:02;6.3;;;5.3;;
537;SDS011;254;48.524;8.926;2022-11-09T06:08:03;7.0;;;5.5;;
537;SDS011;254;48.524;8.926;2022-11-09T06:09:02;6.7;;;5.4;;
537;SDS011;254;48.524;8.926;2022-11-09T06:10:03;5.8;;;5.0;;
537;SDS011;254;48.524;8.926;2022-11-09T06:11:03;6.1;;;5.5;;
537;SDS011;254;48.524;8.926;2022-11-09T06:12:02;7.0;;;5.5;;
537;SDS011;254;48.524;8.926;2022-11-09T06:13:03;6.6;;;5.2;;
537;SDS011;254;48.524;8.926;2022-11-09T06:14:02;5.8;;;5.1;;
537;SDS011;254;48.524;8.926;2022-11-09T06:15:02;6.1;;;5.1;;
537;SDS011;254;48.524;8.926;2022-11-09T06:16:03;6.1;;;4.9;;
537;SDS011;254;48.524;8.926;2022-11-09T06:17:02;6.5;;;5.1;;
537;SDS011;254;48.524;8.926;2022-11-09T06:18:02;5.6;;;4.7;;
537;SDS011;254;48.524;8.926;2022-11-09T06:19:03;6.0;;;4.8;;
537;SDS011;254;48.524;8.926;2022-11-09T06:20:03;6.2;;;3.9;;
537;SDS011;254;48.524;8.926;2022-11-09T06:21:03;5.5;;;4.2;;
537;SDS011;254;48.524;8.926;2022-11-09T06:22:02;4.5;;;4.1;;
537;SDS011;254;48.524;8.926;2022-11-09T06:23:02;5.1;;;3.8;;
537;SDS011;254;48.524;8.926;2022-11-09T06:24:03;5.6;;;4.0;;
537;SDS011;254;48.524;8.926;2022-11-09T06:25:02;6.2;;;4.3;;
537;SDS011;254;48.524;8.926;2022-11-09T06:26:03;6.5;;;5.9;;
537;SDS011;254;48.524;8.926;2022-11-09T06:27:02;10.0;;;7.5;;
537;SDS011;254;48.524;8.926;2022-11-09T06:28:02;9.4;;;6.8;;
537;SDS011;254;48.524;8.926;2022-11-09T06:29:02;8.0;;;7.2;;
537;SDS011;254;48.524;8.926;2022-11-09T06:30:05;9.2;;;7.4;;
537;SDS011;254;48.524;8.926;2022-11-09T06:31:02;8.7;;;7.4;;
537;SDS011;254;48.524;8.926;2022-11-09T06:32:02;7.8;;;7.0;;
537;SDS011;254;48.524;8.926;2022-11-09T06:33:02;7.6;;;6.8;;
537;SDS011;254;48.524;8.926;2022-11-09T06:34:03;9.6;;;7.0;;
537;SDS011;254;48.524;8.926;2022-11-09T06:35:03;7.6;;;6.5;;
537;SDS011;254;48.524;8.926;2022-11-09T06:36:02;7.0;;;6.3;;
537;SDS011;254;48.524;8.926;2022-11-09T06:37:02;7.7;;;5.9;;